Time;durP1;ratioP1;P1;durP2;ratioP2;P2;SDS_P1;SDS_P2;PMS_P1;PMS_P2;Temp;Humidity;BMP_temperature;BMP_pressure;BME280_temperature;BME280_humidity;BME280_pressure;Samples;Min_cycle;Max_cycle;Signal;HPM_P1;HPM_P2
2021/04/06 00:00:29;;;;;;;5.25;1.63;;;;;;;;;;5073720;28;20064;-65
2021/04/06 00:02:57;;;;;;;3.65;1.83;;;;;;;;;;5077810;28;20040;-64
2021/04/06 00:05:24;;;;;;;4.88;1.60;;;;;;;;;;5072156;28;20049;-65
2021/04/06 00:07:51;;;;;;;4.35;2.08;;;;;;;;;;5071744;28;20416;-64
2021/04/06 00:10:19;;;;;;;3.90;1.52;;;;;;;;;;5066308;28;20420;-64
2021/04/06 00:12:47;;;;;;;6.05;1.85;;;;;;;;;;5071922;28;20540;-65
2021/04/06 00:15:17;;;;;;;4.00;1.88;;;;;;;;;;5073511;28;20526;-65
2021/04/06 00:17:44;;;;;;;4.13;1.88;;;;;;;;;;5073143;28;20044;-64
2021/04/06 00:20:11;;;;;;;5.05;2.10;;;;;;;;;;5075801;28;20040;-64
2021/04/06 00:22:38;;;;;;;5.60;1.85;;;;;;;;;;5073467;28;20121;-67
2021/04/06 00:25:07;;;;;;;6.82;2.22;;;;;;;;;;5069182;28;20397;-64
2021/04/06 00:27:37;;;;;;;3.90;2.00;;;;;;;;;;5076175;28;20063;-65
2021/04/06 00:30:06;;;;;;;4.50;1.90;;;;;;;;;;5081875;28;20045;-65
2021/04/06 00:32:34;;;;;;;6.32;2.15;;;;;;;;;;5076206;28;20045;-65
2021/04/06 00:35:02;;;;;;;5.75;2.15;;;;;;;;;;5072778;28;20055;-64
2021/04/06 00:37:28;;;;;;;4.50;1.98;;;;;;;;;;5079474;28;20106;-64
2021/04/06 00:40:05;;;;;;;5.53;2.00;;;;;;;;;;5084782;28;20056;-64
2021/04/06 00:42:32;;;;;;;5.22;2.22;;;;;;;;;;5084366;28;20051;-64
2021/04/06 00:45:04;;;;;;;5.78;2.03;;;;;;;;;;5078095;28;20045;-65
2021/04/06 00:47:31;;;;;;;5.75;2.33;;;;;;;;;;5079858;28;20048;-64
2021/04/06 00:50:03;;;;;;;4.07;2.22;;;;;;;;;;5081267;28;20408;-64
2021/04/06 00:52:29;;;;;;;8.40;2.45;;;;;;;;;;5083615;28;20055;-65
2021/04/06 00:54:57;;;;;;;4.18;2.25;;;;;;;;;;5084541;28;20446;-64
2021/04/06 00:57:23;;;;;;;5.80;2.30;;;;;;;;;;5079394;28;20729;-66
2021/04/06 01:00:14;;;;;;;7.00;2.28;;;;;;;;;;5082067;28;20048;-65
2021/04/06 01:02:40;;;;;;;4.90;2.25;;;;;;;;;;5080389;28;20047;-65
2021/04/06 01:05:08;;;;;;;4.28;2.15;;;;;;;;;;5083515;28;20131;-64
2021/04/06 01:07:35;;;;;;;4.55;2.15;;;;;;;;;;5076662;28;20051;-64
2021/04/06 01:10:01;;;;;;;3.78;2.08;;;;;;;;;;5082641;28;20044;-64
2021/04/06 01:12:28;;;;;;;6.65;2.40;;;;;;;;;;5080125;28;20070;-64
2021/04/06 01:14:56;;;;;;;5.32;2.08;;;;;;;;;;5080538;28;20491;-64
2021/04/06 01:17:25;;;;;;;4.93;2.13;;;;;;;;;;5076770;28;20133;-65
2021/04/06 01:19:52;;;;;;;4.93;2.30;;;;;;;;;;5078102;28;20037;-65
2021/04/06 01:22:19;;;;;;;6.70;2.53;;;;;;;;;;5079185;28;20052;-65
2021/04/06 01:24:48;;;;;;;5.75;2.40;;;;;;;;;;5083635;28;20048;-66
2021/04/06 01:27:16;;;;;;;6.03;2.22;;;;;;;;;;5081659;28;20051;-65
2021/04/06 01:29:48;;;;;;;5.97;1.98;;;;;;;;;;5084082;28;20073;-64
2021/04/06 01:32:14;;;;;;;3.28;1.77;;;;;;;;;;5080210;28;20127;-65
2021/04/06 01:34:41;;;;;;;5.13;2.03;;;;;;;;;;5076316;28;20052;-64
2021/04/06 01:37:07;;;;;;;3.88;2.22;;;;;;;;;;5083429;28;20054;-64
2021/04/06 01:39:34;;;;;;;8.13;2.42;;;;;;;;;;5084586;28;20458;-64
2021/04/06 01:42:03;;;;;;;8.65;2.67;;;;;;;;;;5074491;28;20045;-65
2021/04/06 01:44:30;;;;;;;6.82;2.58;;;;;;;;;;5079216;28;20091;-65
2021/04/06 01:46:56;;;;;;;4.68;2.67;;;;;;;;;;5077782;28;20047;-66
2021/04/06 01:49:23;;;;;;;5.57;2.80;;;;;;;;;;5083085;28;20056;-65
2021/04/06 01:51:49;;;;;;;5.90;2.80;;;;;;;;;;5082190;28;20422;-65
2021/04/06 01:54:18;;;;;;;4.68;2.30;;;;;;;;;;5080871;28;20052;-65
2021/04/06 01:56:47;;;;;;;4.57;2.80;;;;;;;;;;5073541;28;20075;-65
2021/04/06 01:59:17;;;;;;;5.45;2.65;;;;;;;;;;5080863;28;20055;-65
2021/04/06 02:01:48;;;;;;;4.72;2.70;;;;;;;;;;5081260;28;20060;-64
2021/04/06 02:04:19;;;;;;;7.13;3.03;;;;;;;;;;5075633;28;20052;-65
2021/04/06 02:06:45;;;;;;;6.43;2.70;;;;;;;;;;5073820;28;20048;-65
2021/04/06 02:09:11;;;;;;;4.85;2.50;;;;;;;;;;5080593;28;20131;-65
2021/04/06 02:11:39;;;;;;;7.43;2.97;;;;;;;;;;5080388;28;20503;-64
2021/04/06 02:14:06;;;;;;;7.18;3.05;;;;;;;;;;5082818;28;20056;-65
2021/04/06 02:16:48;;;;;;;5.60;3.10;;;;;;;;;;5077154;28;20080;-65
2021/04/06 02:19:23;;;;;;;6.10;3.22;;;;;;;;;;5078728;28;20051;-65
2021/04/06 02:21:49;;;;;;;5.72;2.75;;;;;;;;;;5079895;28;20048;-65
2021/04/06 02:24:28;;;;;;;9.55;3.60;;;;;;;;;;5084579;28;20044;-65
2021/04/06 02:26:59;;;;;;;4.55;3.13;;;;;;;;;;5082948;28;20049;-64
2021/04/06 02:29:25;;;;;;;5.43;3.03;;;;;;;;;;5077144;28;20577;-65
2021/04/06 02:31:52;;;;;;;5.50;2.90;;;;;;;;;;5079430;28;20075;-64
2021/04/06 02:34:18;;;;;;;7.65;3.08;;;;;;;;;;5078171;28;20056;-65
2021/04/06 02:36:45;;;;;;;7.75;3.10;;;;;;;;;;5082585;28;20420;-65
2021/04/06 02:39:12;;;;;;;8.90;3.13;;;;;;;;;;5080973;28;20443;-65
2021/04/06 02:41:38;;;;;;;8.90;3.10;;;;;;;;;;5071558;28;20037;-65
2021/04/06 02:44:05;;;;;;;6.15;2.60;;;;;;;;;;5075798;28;20044;-64
2021/04/06 02:46:32;;;;;;;6.20;3.25;;;;;;;;;;5083228;28;20049;-65
2021/04/06 02:49:00;;;;;;;5.72;2.67;;;;;;;;;;5077426;28;20117;-65
2021/04/06 02:51:26;;;;;;;7.38;2.58;;;;;;;;;;5075192;28;20053;-65
2021/04/06 02:53:53;;;;;;;7.70;2.40;;;;;;;;;;5079363;28;20040;-65
2021/04/06 02:56:30;;;;;;;7.93;3.50;;;;;;;;;;5082045;28;20057;-64
2021/04/06 02:59:11;;;;;;;6.82;3.20;;;;;;;;;;5080565;28;20480;-65
2021/04/06 03:01:38;;;;;;;4.97;3.03;;;;;;;;;;5073005;28;20473;-65
2021/04/06 03:04:16;;;;;;;7.55;3.25;;;;;;;;;;5078706;28;20443;-65
2021/04/06 03:06:42;;;;;;;6.15;2.35;;;;;;;;;;5081962;28;20044;-65
2021/04/06 03:09:11;;;;;;;6.13;2.28;;;;;;;;;;5083449;28;20106;-65
2021/04/06 03:11:41;;;;;;;3.65;2.45;;;;;;;;;;5071002;28;20070;-66
2021/04/06 03:14:07;;;;;;;7.70;2.55;;;;;;;;;;5081139;28;20049;-64
2021/04/06 03:16:33;;;;;;;7.28;3.63;;;;;;;;;;5080999;28;20044;-65
2021/04/06 03:19:02;;;;;;;9.63;2.97;;;;;;;;;;5082102;28;20131;-65
2021/04/06 03:21:29;;;;;;;5.18;3.08;;;;;;;;;;5084050;28;20538;-65
2021/04/06 03:23:55;;;;;;;11.18;3.35;;;;;;;;;;5076043;28;20040;-65
2021/04/06 03:26:23;;;;;;;6.25;3.25;;;;;;;;;;5075721;28;20051;-64
2021/04/06 03:28:49;;;;;;;8.23;3.53;;;;;;;;;;5077625;28;20040;-64
2021/04/06 03:31:17;;;;;;;5.18;2.92;;;;;;;;;;5075177;28;20055;-65
2021/04/06 03:33:44;;;;;;;6.65;3.85;;;;;;;;;;5081516;28;20621;-65
2021/04/06 03:36:19;;;;;;;7.20;3.50;;;;;;;;;;5075231;28;20051;-65
2021/04/06 03:38:46;;;;;;;7.70;3.47;;;;;;;;;;5074266;28;20040;-66
2021/04/06 03:41:12;;;;;;;6.28;4.90;;;;;;;;;;5080383;28;20052;-65
2021/04/06 03:43:40;;;;;;;6.28;3.33;;;;;;;;;;5077781;28;20058;-65
2021/04/06 03:46:07;;;;;;;7.45;3.33;;;;;;;;;;5080945;28;20052;-64
2021/04/06 03:48:34;;;;;;;6.28;3.30;;;;;;;;;;5069963;28;20044;-65
2021/04/06 03:51:01;;;;;;;8.07;3.63;;;;;;;;;;5074545;28;20420;-65
2021/04/06 03:53:37;;;;;;;5.97;3.28;;;;;;;;;;5080810;28;20048;-65
2021/04/06 03:56:05;;;;;;;7.03;2.95;;;;;;;;;;5080264;28;20047;-64
2021/04/06 03:58:34;;;;;;;5.65;2.97;;;;;;;;;;5071897;28;20148;-64
2021/04/06 04:01:00;;;;;;;7.22;2.38;;;;;;;;;;5075338;28;20044;-64
2021/04/06 04:03:26;;;;;;;8.82;3.22;;;;;;;;;;5081578;28;20058;-65
2021/04/06 04:05:52;;;;;;;8.73;2.90;;;;;;;;;;5080190;28;20056;-64
2021/04/06 04:08:18;;;;;;;9.88;3.35;;;;;;;;;;5077168;28;20098;-64
2021/04/06 04:10:44;;;;;;;10.13;3.75;;;;;;;;;;5078735;28;20053;-64
2021/04/06 04:13:11;;;;;;;6.15;2.95;;;;;;;;;;5081994;28;20052;-65
2021/04/06 04:15:37;;;;;;;9.18;2.92;;;;;;;;;;5081549;28;20051;-66
2021/04/06 04:18:04;;;;;;;6.88;2.80;;;;;;;;;;5080486;28;20076;-65
2021/04/06 04:20:30;;;;;;;6.47;2.97;;;;;;;;;;5080304;28;20044;-64
2021/04/06 04:22:56;;;;;;;5.53;2.65;;;;;;;;;;5084302;28;20106;-63
2021/04/06 04:25:25;;;;;;;6.85;3.13;;;;;;;;;;5076745;28;20572;-65
2021/04/06 04:27:51;;;;;;;8.98;3.20;;;;;;;;;;5081863;28;20049;-64
2021/04/06 04:30:36;;;;;;;4.97;2.97;;;;;;;;;;5074404;28;20048;-64
2021/04/06 04:33:03;;;;;;;10.95;4.43;;;;;;;;;;5079834;28;20044;-65
2021/04/06 04:35:29;;;;;;;4.90;3.25;;;;;;;;;;5081725;28;20508;-65
2021/04/06 04:37:55;;;;;;;7.78;3.33;;;;;;;;;;5082531;28;20052;-65
2021/04/06 04:40:21;;;;;;;9.32;3.33;;;;;;;;;;5075359;28;20059;-65
2021/04/06 04:42:50;;;;;;;12.68;4.45;;;;;;;;;;5082939;28;20040;-65
2021/04/06 04:45:17;;;;;;;8.27;2.90;;;;;;;;;;5084324;28;20166;-65
2021/04/06 04:47:43;;;;;;;5.55;3.00;;;;;;;;;;5085950;28;20076;-65
2021/04/06 04:50:11;;;;;;;10.45;3.08;;;;;;;;;;5078392;28;20163;-65
2021/04/06 04:52:37;;;;;;;6.28;3.03;;;;;;;;;;5078462;28;20514;-65
2021/04/06 04:55:04;;;;;;;10.93;4.13;;;;;;;;;;5081625;28;20158;-65
2021/04/06 04:57:30;;;;;;;9.68;3.42;;;;;;;;;;5083794;28;20088;-65
2021/04/06 04:59:56;;;;;;;7.05;3.67;;;;;;;;;;5081137;28;20079;-65
2021/04/06 05:02:22;;;;;;;8.90;4.38;;;;;;;;;;5077674;28;20079;-65
2021/04/06 05:04:50;;;;;;;7.18;3.60;;;;;;;;;;5082647;28;20101;-65
2021/04/06 05:07:16;;;;;;;7.38;3.70;;;;;;;;;;5080124;28;20122;-65
2021/04/06 05:09:42;;;;;;;9.23;3.70;;;;;;;;;;5082165;28;20052;-64
2021/04/06 05:12:08;;;;;;;6.32;3.00;;;;;;;;;;5081900;28;20050;-66
2021/04/06 05:14:34;;;;;;;7.35;3.20;;;;;;;;;;5074262;28;20050;-65
2021/04/06 05:17:00;;;;;;;6.70;3.08;;;;;;;;;;5077177;28;20048;-65
2021/04/06 05:19:26;;;;;;;5.80;3.00;;;;;;;;;;5080153;28;20556;-65
2021/04/06 05:21:53;;;;;;;5.50;3.25;;;;;;;;;;5082863;28;20052;-65
2021/04/06 05:24:19;;;;;;;7.13;3.58;;;;;;;;;;5079671;28;20054;-65
2021/04/06 05:26:45;;;;;;;8.52;3.65;;;;;;;;;;5075265;28;20481;-65
2021/04/06 05:29:11;;;;;;;6.90;3.40;;;;;;;;;;5078319;28;20054;-64
2021/04/06 05:31:37;;;;;;;9.32;3.70;;;;;;;;;;5079655;28;20488;-64
2021/04/06 05:34:03;;;;;;;9.93;3.25;;;;;;;;;;5080580;28;20048;-64
2021/04/06 05:36:29;;;;;;;8.43;3.67;;;;;;;;;;5079428;28;20047;-64
2021/04/06 05:38:56;;;;;;;8.77;3.92;;;;;;;;;;5080178;28;20093;-64
2021/04/06 05:41:23;;;;;;;8.23;3.35;;;;;;;;;;5083052;28;20480;-64
2021/04/06 05:43:56;;;;;;;6.47;3.70;;;;;;;;;;5083086;28;20086;-64
2021/04/06 05:46:23;;;;;;;8.25;4.32;;;;;;;;;;5078998;28;20056;-64
2021/04/06 05:48:49;;;;;;;5.88;3.53;;;;;;;;;;5075387;28;20048;-65
2021/04/06 05:51:16;;;;;;;10.93;3.50;;;;;;;;;;5083559;28;20040;-63
2021/04/06 05:53:43;;;;;;;7.68;4.03;;;;;;;;;;5083906;28;20040;-64
2021/04/06 05:56:09;;;;;;;7.47;3.08;;;;;;;;;;5076456;28;20048;-64
2021/04/06 05:58:35;;;;;;;9.63;3.70;;;;;;;;;;5077000;28;20050;-64
2021/04/06 06:01:01;;;;;;;9.05;4.00;;;;;;;;;;5080026;28;20040;-64
2021/04/06 06:03:28;;;;;;;8.63;3.65;;;;;;;;;;5085295;28;20074;-65
2021/04/06 06:05:54;;;;;;;9.18;3.88;;;;;;;;;;5081019;28;20132;-64
2021/04/06 06:08:20;;;;;;;9.73;3.22;;;;;;;;;;5076050;28;20177;-64
2021/04/06 06:10:46;;;;;;;7.18;3.17;;;;;;;;;;5082758;28;20063;-64
2021/04/06 06:13:18;;;;;;;6.03;3.50;;;;;;;;;;5082027;28;20437;-64
2021/04/06 06:16:09;;;;;;;8.18;4.43;;;;;;;;;;5083479;28;20048;-64
2021/04/06 06:18:54;;;;;;;6.22;2.60;;;;;;;;;;5082605;28;20051;-65
2021/04/06 06:21:20;;;;;;;6.20;3.20;;;;;;;;;;5069696;28;20048;-65
2021/04/06 06:23:46;;;;;;;9.05;3.63;;;;;;;;;;5077410;28;20044;-65
2021/04/06 06:26:16;;;;;;;7.95;3.88;;;;;;;;;;5080494;28;20062;-65
2021/04/06 06:29:04;;;;;;;5.25;2.97;;;;;;;;;;5080263;28;20048;-65
2021/04/06 06:31:34;;;;;;;6.55;3.10;;;;;;;;;;5073463;28;20057;-65
2021/04/06 06:34:00;;;;;;;8.73;3.42;;;;;;;;;;5073055;28;20558;-65
2021/04/06 06:36:26;;;;;;;7.18;2.70;;;;;;;;;;5079933;28;20052;-65
2021/04/06 06:39:02;;;;;;;5.65;3.33;;;;;;;;;;5083569;28;20055;-65
2021/04/06 06:41:28;;;;;;;5.07;2.78;;;;;;;;;;5073408;28;20044;-65
2021/04/06 06:43:56;;;;;;;7.88;3.15;;;;;;;;;;5079361;28;20048;-64
2021/04/06 06:46:24;;;;;;;5.45;2.55;;;;;;;;;;5078993;28;20432;-65
2021/04/06 06:48:54;;;;;;;8.32;2.72;;;;;;;;;;5083322;28;20051;-65
2021/04/06 06:51:21;;;;;;;5.22;2.92;;;;;;;;;;5079535;28;20067;-65
2021/04/06 06:53:47;;;;;;;8.40;2.70;;;;;;;;;;5073248;28;20044;-65
2021/04/06 06:56:13;;;;;;;9.50;2.70;;;;;;;;;;5076287;28;20184;-65
2021/04/06 06:58:41;;;;;;;6.53;2.88;;;;;;;;;;5080373;28;20056;-65
2021/04/06 07:01:09;;;;;;;4.07;2.45;;;;;;;;;;5082182;28;20370;-65
2021/04/06 07:03:35;;;;;;;6.53;3.15;;;;;;;;;;5078071;28;20052;-65
2021/04/06 07:06:22;;;;;;;8.20;2.38;;;;;;;;;;5071778;28;20051;-66
2021/04/06 07:08:48;;;;;;;;;;;;;;;;;;5082768;28;20040;-65
2021/04/06 07:11:16;;;;;;;7.07;2.33;;;;;;;;;;5080248;28;19927;-65
2021/04/06 07:13:44;;;;;;;6.93;2.55;;;;;;;;;;5080547;28;20056;-65
2021/04/06 07:16:12;;;;;;;7.35;2.95;;;;;;;;;;5076886;28;20474;-65
2021/04/06 07:18:38;;;;;;;4.88;2.38;;;;;;;;;;5077041;28;20040;-65
2021/04/06 07:21:05;;;;;;;6.45;2.75;;;;;;;;;;5078635;28;20105;-64
2021/04/06 07:23:36;;;;;;;6.75;3.13;;;;;;;;;;5077986;28;20051;-65
2021/04/06 07:26:06;;;;;;;5.50;2.38;;;;;;;;;;5072172;28;20124;-65
2021/04/06 07:28:33;;;;;;;6.38;2.58;;;;;;;;;;5077500;28;20536;-65
2021/04/06 07:30:59;;;;;;;7.60;3.65;;;;;;;;;;5080490;28;20040;-65
2021/04/06 07:33:29;;;;;;;7.15;3.38;;;;;;;;;;5080677;28;20461;-65
2021/04/06 07:35:55;;;;;;;9.30;2.60;;;;;;;;;;5074512;28;20408;-65
2021/04/06 07:38:21;;;;;;;8.50;2.97;;;;;;;;;;5079765;28;20094;-65
2021/04/06 07:40:48;;;;;;;7.18;2.33;;;;;;;;;;5085350;28;20052;-65
2021/04/06 07:43:14;;;;;;;5.95;2.50;;;;;;;;;;5075858;28;20049;-64
2021/04/06 07:45:44;;;;;;;6.90;2.80;;;;;;;;;;5081373;28;20493;-64
2021/04/06 07:48:12;;;;;;;6.05;2.50;;;;;;;;;;5078662;28;20052;-64
2021/04/06 07:50:41;;;;;;;5.57;2.67;;;;;;;;;;5075292;28;20055;-64
2021/04/06 07:53:35;;;;;;;9.65;2.78;;;;;;;;;;5080328;28;20127;-64
2021/04/06 07:56:01;;;;;;;6.53;2.65;;;;;;;;;;5017326;28;20044;-64
2021/04/06 07:58:47;;;;;;;8.45;2.72;;;;;;;;;;5074452;28;20113;-65
2021/04/06 08:01:16;;;;;;;8.30;2.80;;;;;;;;;;5077275;28;20061;-63
2021/04/06 08:04:03;;;;;;;8.93;2.70;;;;;;;;;;5073710;28;20496;-63
2021/04/06 08:06:41;;;;;;;4.35;2.35;;;;;;;;;;5075446;28;20044;-63
2021/04/06 08:09:42;;;;;;;7.90;2.22;;;;;;;;;;5078715;28;20052;-63
2021/04/06 08:12:10;;;;;;;7.13;2.72;;;;;;;;;;5080069;28;20071;-63
2021/04/06 08:14:37;;;;;;;7.15;2.30;;;;;;;;;;5077792;28;20135;-63
2021/04/06 08:17:41;;;;;;;5.97;2.40;;;;;;;;;;5075661;28;20131;-63
2021/04/06 08:20:16;;;;;;;6.25;2.20;;;;;;;;;;5077822;28;20048;-64
2021/04/06 08:22:49;;;;;;;6.90;2.60;;;;;;;;;;5072989;28;20044;-63
2021/04/06 08:25:54;;;;;;;7.47;2.78;;;;;;;;;;5067946;28;20052;-63
2021/04/06 08:28:41;;;;;;;6.20;2.65;;;;;;;;;;5068766;28;20056;-63
2021/04/06 08:31:32;;;;;;;8.18;2.10;;;;;;;;;;5070560;28;20054;-63
2021/04/06 08:34:27;;;;;;;5.72;2.58;;;;;;;;;;5071002;28;20041;-62
2021/04/06 08:37:29;;;;;;;6.82;3.10;;;;;;;;;;5070567;28;20117;-64
2021/04/06 08:39:56;;;;;;;6.00;2.78;;;;;;;;;;5055181;28;20056;-66
2021/04/06 08:42:22;;;;;;;9.43;2.83;;;;;;;;;;5072296;28;20053;-64
2021/04/06 08:44:56;;;;;;;6.75;2.65;;;;;;;;;;5071349;28;20040;-64
2021/04/06 08:47:46;;;;;;;8.52;2.22;;;;;;;;;;5072880;28;20083;-64
2021/04/06 08:50:19;;;;;;;5.57;2.63;;;;;;;;;;5068885;28;20055;-65
2021/04/06 08:52:46;;;;;;;7.18;2.58;;;;;;;;;;5072300;28;20160;-66
2021/04/06 08:55:15;;;;;;;10.98;4.63;;;;;;;;;;5078444;28;20078;-64
2021/04/06 08:57:42;;;;;;;10.73;3.80;;;;;;;;;;5082794;28;20055;-65
2021/04/06 09:00:11;;;;;;;5.78;2.60;;;;;;;;;;5078398;28;20174;-64
2021/04/06 09:02:37;;;;;;;8.38;3.60;;;;;;;;;;5080098;28;20051;-64
2021/04/06 09:05:03;;;;;;;8.20;3.35;;;;;;;;;;5074297;28;20040;-64
2021/04/06 09:07:31;;;;;;;7.18;2.58;;;;;;;;;;5076731;28;20045;-64
2021/04/06 09:09:58;;;;;;;7.65;3.15;;;;;;;;;;5075716;28;20044;-64
2021/04/06 09:12:35;;;;;;;5.03;2.70;;;;;;;;;;5079431;28;20052;-64
2021/04/06 09:15:02;;;;;;;7.03;2.70;;;;;;;;;;5080080;28;20045;-64
2021/04/06 09:17:31;;;;;;;6.18;2.53;;;;;;;;;;5079912;28;20082;-64
2021/04/06 09:19:58;;;;;;;5.03;2.95;;;;;;;;;;5074583;28;20412;-65
2021/04/06 09:22:24;;;;;;;7.13;2.55;;;;;;;;;;5077248;28;20049;-64
2021/04/06 09:24:50;;;;;;;4.57;1.90;;;;;;;;;;5075912;28;20055;-64
2021/04/06 09:27:16;;;;;;;5.65;2.55;;;;;;;;;;5081107;28;20044;-65
2021/04/06 09:29:47;;;;;;;5.75;1.85;;;;;;;;;;5077490;28;20473;-64
2021/04/06 09:32:14;;;;;;;10.95;2.50;;;;;;;;;;5075726;28;20491;-65
2021/04/06 09:34:42;;;;;;;5.32;2.20;;;;;;;;;;5080404;28;20048;-64
2021/04/06 09:37:10;;;;;;;4.78;2.50;;;;;;;;;;5085300;28;20059;-64
2021/04/06 09:39:38;;;;;;;7.63;2.22;;;;;;;;;;5079241;28;20702;-65
2021/04/06 09:42:06;;;;;;;5.32;2.47;;;;;;;;;;5075374;28;20049;-64
2021/04/06 09:44:34;;;;;;;6.30;2.50;;;;;;;;;;5078657;28;20056;-65
2021/04/06 09:47:03;;;;;;;5.28;1.63;;;;;;;;;;5079160;28;20056;-64
2021/04/06 09:49:31;;;;;;;3.95;2.20;;;;;;;;;;5080396;28;20419;-65
2021/04/06 09:51:57;;;;;;;7.55;2.22;;;;;;;;;;5081248;28;20076;-65
2021/04/06 09:54:27;;;;;;;4.03;1.85;;;;;;;;;;5079784;28;20545;-64
2021/04/06 09:56:54;;;;;;;6.13;2.67;;;;;;;;;;5081748;28;20084;-65
2021/04/06 09:59:20;;;;;;;7.05;3.45;;;;;;;;;;5083254;28;20063;-65
2021/04/06 10:01:50;;;;;;;7.97;3.03;;;;;;;;;;5082495;28;20051;-65
2021/04/06 10:04:31;;;;;;;6.82;2.60;;;;;;;;;;5069029;28;20048;-65
2021/04/06 10:07:06;;;;;;;6.00;2.08;;;;;;;;;;5072539;28;20129;-65
2021/04/06 10:09:34;;;;;;;7.18;2.65;;;;;;;;;;5073649;28;20083;-65
2021/04/06 10:12:01;;;;;;;14.27;4.13;;;;;;;;;;5073880;28;20052;-64
2021/04/06 10:14:27;;;;;;;4.28;3.08;;;;;;;;;;5070863;28;20056;-65
2021/04/06 10:16:58;;;;;;;10.20;3.60;;;;;;;;;;5073946;28;20094;-64
2021/04/06 10:19:26;;;;;;;6.55;2.85;;;;;;;;;;5074722;28;20048;-66
2021/04/06 10:22:05;;;;;;;10.65;3.15;;;;;;;;;;5072835;28;20097;-64
2021/04/06 10:24:34;;;;;;;10.68;4.65;;;;;;;;;;5071858;28;20044;-64
2021/04/06 10:27:06;;;;;;;8.32;3.38;;;;;;;;;;5074439;28;20040;-64
2021/04/06 10:29:32;;;;;;;9.63;3.78;;;;;;;;;;5073473;28;20049;-65
2021/04/06 10:32:00;;;;;;;9.10;3.25;;;;;;;;;;5078098;28;20472;-63
2021/04/06 10:34:27;;;;;;;9.32;2.92;;;;;;;;;;5072127;28;20051;-65
2021/04/06 10:37:03;;;;;;;8.00;2.92;;;;;;;;;;5079847;28;20044;-64
2021/04/06 10:39:30;;;;;;;;;;;;;;;;;;5073347;28;20072;-64
2021/04/06 10:41:56;;;;;;;8.07;2.85;;;;;;;;;;5071992;28;19930;-64
2021/04/06 10:44:22;;;;;;;9.38;3.33;;;;;;;;;;5070810;28;20093;-64
2021/04/06 10:46:48;;;;;;;10.27;4.25;;;;;;;;;;5074627;28;20052;-64
2021/04/06 10:49:14;;;;;;;8.52;3.80;;;;;;;;;;5073750;28;20040;-64
2021/04/06 10:51:48;;;;;;;7.45;3.35;;;;;;;;;;5073187;28;20054;-66
2021/04/06 10:54:16;;;;;;;6.20;3.00;;;;;;;;;;5071261;28;20060;-64
2021/04/06 10:56:44;;;;;;;7.50;3.63;;;;;;;;;;5071893;28;20052;-64
2021/04/06 10:59:11;;;;;;;6.55;3.10;;;;;;;;;;5071008;28;20059;-65
2021/04/06 11:01:39;;;;;;;6.43;3.10;;;;;;;;;;5072150;28;20044;-64
2021/04/06 11:04:10;;;;;;;7.43;2.85;;;;;;;;;;5077762;28;20082;-64
2021/04/06 11:06:37;;;;;;;8.43;2.88;;;;;;;;;;5076586;28;20129;-65
2021/04/06 11:09:15;;;;;;;6.13;2.78;;;;;;;;;;5072761;28;20409;-65
2021/04/06 11:11:42;;;;;;;8.65;3.10;;;;;;;;;;5075382;28;20389;-67
2021/04/06 11:14:10;;;;;;;8.23;2.63;;;;;;;;;;5074611;28;20503;-65
2021/04/06 11:16:38;;;;;;;8.98;2.70;;;;;;;;;;5075897;28;20048;-65
2021/04/06 11:19:07;;;;;;;6.10;2.13;;;;;;;;;;5072932;28;20477;-65
2021/04/06 11:21:37;;;;;;;6.70;2.88;;;;;;;;;;5074805;28;20135;-66
2021/04/06 11:24:05;;;;;;;6.38;2.50;;;;;;;;;;5074094;28;20059;-66
2021/04/06 11:26:32;;;;;;;9.05;2.83;;;;;;;;;;5077357;28;20060;-67
2021/04/06 11:28:59;;;;;;;6.18;2.40;;;;;;;;;;5070207;28;20040;-67
2021/04/06 11:31:25;;;;;;;8.45;2.63;;;;;;;;;;5077685;28;20689;-66
2021/04/06 11:33:52;;;;;;;5.10;2.78;;;;;;;;;;5075294;28;20396;-65
2021/04/06 11:36:18;;;;;;;7.07;2.53;;;;;;;;;;5070504;28;20060;-66
2021/04/06 11:38:45;;;;;;;4.85;2.10;;;;;;;;;;5074557;28;20467;-67
2021/04/06 11:41:11;;;;;;;4.03;2.25;;;;;;;;;;5075201;28;20059;-65
2021/04/06 11:43:38;;;;;;;5.55;2.13;;;;;;;;;;5074567;28;20658;-66
2021/04/06 11:46:04;;;;;;;5.75;2.58;;;;;;;;;;5080249;28;20112;-64
2021/04/06 11:48:30;;;;;;;9.55;2.53;;;;;;;;;;5080342;28;20048;-66
2021/04/06 11:50:56;;;;;;;4.85;1.95;;;;;;;;;;5076275;28;20054;-63
2021/04/06 11:53:22;;;;;;;7.35;2.60;;;;;;;;;;5075850;28;20040;-70
2021/04/06 11:55:48;;;;;;;5.05;1.95;;;;;;;;;;5076289;28;20091;-66
2021/04/06 11:58:14;;;;;;;7.30;3.15;;;;;;;;;;5073233;28;20051;-65
2021/04/06 12:00:41;;;;;;;3.78;2.33;;;;;;;;;;5075016;28;20044;-65
2021/04/06 12:03:07;;;;;;;8.43;3.75;;;;;;;;;;5072650;28;20036;-66
2021/04/06 12:05:34;;;;;;;5.68;2.83;;;;;;;;;;5074469;28;20052;-66
2021/04/06 12:08:00;;;;;;;9.90;3.70;;;;;;;;;;5068348;28;20151;-68
2021/04/06 12:10:26;;;;;;;9.20;3.70;;;;;;;;;;5071540;28;20087;-67
2021/04/06 12:12:52;;;;;;;8.32;3.13;;;;;;;;;;5070654;28;20044;-68
2021/04/06 12:15:18;;;;;;;4.47;2.28;;;;;;;;;;5067360;28;20481;-67
2021/04/06 12:17:49;;;;;;;8.75;2.42;;;;;;;;;;5072618;28;20052;-67
2021/04/06 12:20:15;;;;;;;5.15;2.45;;;;;;;;;;5077247;28;20052;-68
2021/04/06 12:22:41;;;;;;;8.00;2.22;;;;;;;;;;5070803;28;20117;-67
2021/04/06 12:25:08;;;;;;;8.88;2.53;;;;;;;;;;5072050;28;20055;-66
2021/04/06 12:27:34;;;;;;;5.40;1.95;;;;;;;;;;5071117;28;20127;-65
2021/04/06 12:30:00;;;;;;;6.40;2.60;;;;;;;;;;5074094;28;20040;-66
2021/04/06 12:32:26;;;;;;;7.35;2.38;;;;;;;;;;5083385;28;20059;-67
2021/04/06 12:34:53;;;;;;;6.85;2.90;;;;;;;;;;5074711;28;20424;-67
2021/04/06 12:37:20;;;;;;;5.30;2.40;;;;;;;;;;5075019;28;20087;-65
2021/04/06 12:39:47;;;;;;;7.00;2.42;;;;;;;;;;5079093;28;20459;-66
2021/04/06 12:42:13;;;;;;;3.85;1.88;;;;;;;;;;5077797;28;20052;-64
2021/04/06 12:44:39;;;;;;;5.30;2.00;;;;;;;;;;5076005;28;20053;-66
2021/04/06 12:47:05;;;;;;;8.85;2.13;;;;;;;;;;5072486;28;20132;-66
2021/04/06 12:49:31;;;;;;;6.00;2.30;;;;;;;;;;5070331;28;20052;-65
2021/04/06 12:51:58;;;;;;;5.22;2.22;;;;;;;;;;5079908;28;20131;-65
2021/04/06 12:54:24;;;;;;;5.60;1.75;;;;;;;;;;5082036;28;20044;-65
2021/04/06 12:56:50;;;;;;;11.82;2.13;;;;;;;;;;5079465;28;20040;-64
2021/04/06 12:59:16;;;;;;;4.55;1.80;;;;;;;;;;5088457;28;20135;-65
2021/04/06 13:01:42;;;;;;;5.38;2.50;;;;;;;;;;5076059;28;20445;-64
2021/04/06 13:04:08;;;;;;;5.93;2.13;;;;;;;;;;5084883;28;20053;-64
2021/04/06 13:06:36;;;;;;;4.95;1.70;;;;;;;;;;5076852;28;20044;-64
2021/04/06 13:09:03;;;;;;;6.22;2.03;;;;;;;;;;5073005;28;20097;-65
2021/04/06 13:11:29;;;;;;;6.22;1.77;;;;;;;;;;5074721;28;20051;-65
2021/04/06 13:13:56;;;;;;;5.05;2.05;;;;;;;;;;5078222;28;20157;-64
2021/04/06 13:16:21;;;;;;;5.03;1.95;;;;;;;;;;5078440;28;20079;-64
2021/04/06 13:18:47;;;;;;;6.22;1.98;;;;;;;;;;5085829;28;20056;-65
2021/04/06 13:21:14;;;;;;;4.18;1.95;;;;;;;;;;5086808;28;20063;-64
2021/04/06 13:23:40;;;;;;;5.57;1.80;;;;;;;;;;5085297;28;20058;-64
2021/04/06 13:26:06;;;;;;;3.95;2.20;;;;;;;;;;5074032;28;20056;-64
2021/04/06 13:28:33;;;;;;;5.85;2.35;;;;;;;;;;5085381;28;20424;-63
2021/04/06 13:30:59;;;;;;;6.90;1.90;;;;;;;;;;5076882;28;20054;-64
2021/04/06 13:33:25;;;;;;;4.70;1.90;;;;;;;;;;5076671;28;20503;-63
2021/04/06 13:35:51;;;;;;;5.32;1.90;;;;;;;;;;5076291;28;20089;-64
2021/04/06 13:38:17;;;;;;;3.92;1.52;;;;;;;;;;5081860;28;20055;-64
2021/04/06 13:40:43;;;;;;;4.65;1.70;;;;;;;;;;5079898;28;20093;-63
2021/04/06 13:43:10;;;;;;;3.92;1.30;;;;;;;;;;5072042;28;20431;-64
2021/04/06 13:45:36;;;;;;;3.28;1.10;;;;;;;;;;5074081;28;20044;-64
2021/04/06 13:48:03;;;;;;;4.63;1.63;;;;;;;;;;5073719;28;20045;-63
2021/04/06 13:50:30;;;;;;;4.03;1.80;;;;;;;;;;5073087;28;20044;-64
2021/04/06 13:52:56;;;;;;;5.93;1.77;;;;;;;;;;5072986;28;20048;-64
2021/04/06 13:55:23;;;;;;;4.65;1.95;;;;;;;;;;5072879;28;20056;-64
2021/04/06 13:57:51;;;;;;;4.57;1.65;;;;;;;;;;5072990;28;20052;-63
2021/04/06 14:00:20;;;;;;;3.17;1.70;;;;;;;;;;5073807;28;20040;-65
2021/04/06 14:02:46;;;;;;;5.15;1.90;;;;;;;;;;5077818;28;20129;-64
2021/04/06 14:05:13;;;;;;;3.42;1.33;;;;;;;;;;5076767;28;20517;-64
2021/04/06 14:07:40;;;;;;;4.63;1.50;;;;;;;;;;5080915;28;20519;-65
2021/04/06 14:10:07;;;;;;;2.80;1.60;;;;;;;;;;5077615;28;20056;-65
2021/04/06 14:12:33;;;;;;;1.65;0.77;;;;;;;;;;5064560;28;20051;-65
2021/04/06 14:14:59;;;;;;;1.10;0.70;;;;;;;;;;5065805;28;20101;-66
2021/04/06 14:17:26;;;;;;;1.08;0.60;;;;;;;;;;5070713;28;20060;-65
2021/04/06 14:19:52;;;;;;;1.38;0.50;;;;;;;;;;5077136;28;20056;-65
2021/04/06 14:22:18;;;;;;;2.20;0.75;;;;;;;;;;5076741;28;20145;-65
2021/04/06 14:24:44;;;;;;;1.58;0.75;;;;;;;;;;5068261;28;20052;-65
2021/04/06 14:27:11;;;;;;;2.33;0.77;;;;;;;;;;5081005;28;20044;-65
2021/04/06 14:29:37;;;;;;;2.15;0.90;;;;;;;;;;5078294;28;20052;-64
2021/04/06 14:32:03;;;;;;;2.30;1.20;;;;;;;;;;5079124;28;20612;-64
2021/04/06 14:34:30;;;;;;;2.10;0.95;;;;;;;;;;5074978;28;20062;-64
2021/04/06 14:36:56;;;;;;;4.68;1.38;;;;;;;;;;5083054;28;20050;-65
2021/04/06 14:39:22;;;;;;;5.28;1.30;;;;;;;;;;5077665;28;20040;-65
2021/04/06 14:41:49;;;;;;;13.73;1.58;;;;;;;;;;5077346;28;20131;-65
2021/04/06 14:44:16;;;;;;;4.03;1.40;;;;;;;;;;5073402;28;20078;-66
2021/04/06 14:46:42;;;;;;;3.22;1.02;;;;;;;;;;5072708;28;20040;-64
2021/04/06 14:49:08;;;;;;;1.73;0.80;;;;;;;;;;5069552;28;20075;-64
2021/04/06 14:51:35;;;;;;;2.70;1.02;;;;;;;;;;5077307;28;20139;-64